Time;durP1;ratioP1;P1;durP2;ratioP2;P2;SDS_P1;SDS_P2;PMS_P1;PMS_P2;Temp;Humidity;BMP_temperature;BMP_pressure;BME280_temperature;BME280_humidity;BME280_pressure;Samples;Min_cycle;Max_cycle;Signal;HPM_P1;HPM_P2
2021/12/12 00:02:08;;;;;;;6.57;3.20;;;;;;;;;;143723;610;46018;-53
2021/12/12 00:04:38;;;;;;;8.35;3.67;;;;;;;;;;143728;569;46022;-52
2021/12/12 00:07:12;;;;;;;7.43;2.87;;;;;;;;;;143725;575;47018;-53
2021/12/12 00:09:47;;;;;;;5.43;3.53;;;;;;;;;;143724;591;47010;-54
2021/12/12 00:12:23;;;;;;;4.40;2.78;;;;;;;;;;143723;570;46018;-52
2021/12/12 00:14:51;;;;;;;5.40;3.30;;;;;;;;;;143727;581;47012;-53
2021/12/12 00:17:19;;;;;;;4.82;2.92;;;;;;;;;;143725;604;47018;-53
2021/12/12 00:19:47;;;;;;;5.43;3.30;;;;;;;;;;143724;566;47011;-54
2021/12/12 00:22:21;;;;;;;3.47;2.70;;;;;;;;;;143722;581;46019;-54
2021/12/12 00:24:48;;;;;;;6.25;3.20;;;;;;;;;;143729;585;46022;-52
2021/12/12 00:27:19;;;;;;;7.95;3.15;;;;;;;;;;143725;583;47019;-53
2021/12/12 00:29:46;;;;;;;7.82;3.42;;;;;;;;;;143724;570;47010;-54
2021/12/12 00:32:16;;;;;;;8.57;3.50;;;;;;;;;;143723;661;46018;-54
2021/12/12 00:34:52;;;;;;;6.00;2.87;;;;;;;;;;143729;570;46022;-54
2021/12/12 00:37:21;;;;;;;4.22;2.65;;;;;;;;;;143725;581;47018;-54
2021/12/12 00:39:52;;;;;;;4.37;2.45;;;;;;;;;;143723;586;47010;-54
2021/12/12 00:42:23;;;;;;;7.10;2.72;;;;;;;;;;143723;600;46020;-54
2021/12/12 00:44:55;;;;;;;6.45;3.00;;;;;;;;;;143728;597;46021;-52
2021/12/12 00:47:23;;;;;;;7.65;2.95;;;;;;;;;;143723;583;47018;-54
2021/12/12 00:49:51;;;;;;;4.82;2.05;;;;;;;;;;143724;640;47010;-53
2021/12/12 00:52:19;;;;;;;4.05;2.65;;;;;;;;;;143725;619;46019;-53
2021/12/12 00:54:49;;;;;;;5.65;2.83;;;;;;;;;;143728;587;46022;-53
2021/12/12 00:57:20;;;;;;;4.90;2.17;;;;;;;;;;143724;569;47020;-53
2021/12/12 00:59:48;;;;;;;6.97;2.30;;;;;;;;;;143724;578;47010;-52
2021/12/12 01:02:21;;;;;;;6.45;3.00;;;;;;;;;;143722;590;47018;-54
2021/12/12 01:04:53;;;;;;;5.60;2.90;;;;;;;;;;143728;575;46022;-53
2021/12/12 01:07:26;;;;;;;3.92;2.62;;;;;;;;;;143725;632;47018;-54
2021/12/12 01:10:00;;;;;;;4.90;2.50;;;;;;;;;;143724;589;47010;-53
2021/12/12 01:12:31;;;;;;;7.20;2.53;;;;;;;;;;143723;566;46018;-53
2021/12/12 01:15:20;;;;;;;6.20;3.30;;;;;;;;;;143726;569;47012;-53
2021/12/12 01:17:50;;;;;;;6.30;2.95;;;;;;;;;;143726;623;47022;-54
2021/12/12 01:20:37;;;;;;;7.60;3.05;;;;;;;;;;143723;581;47010;-55
2021/12/12 01:23:12;;;;;;;4.90;2.67;;;;;;;;;;143725;600;46018;-53
2021/12/12 01:25:44;;;;;;;5.65;2.40;;;;;;;;;;143726;583;46022;-53
2021/12/12 01:28:14;;;;;;;4.50;2.10;;;;;;;;;;143724;577;47021;-53
2021/12/12 01:30:41;;;;;;;5.00;1.83;;;;;;;;;;143722;655;47010;-55
2021/12/12 01:33:12;;;;;;;4.95;2.67;;;;;;;;;;143724;578;46018;-54
2021/12/12 01:35:40;;;;;;;9.05;2.95;;;;;;;;;;143728;607;46023;-54
2021/12/12 01:40:57;;;;;;;6.12;2.62;;;;;;;;;;143724;706;47010;-53
2021/12/12 01:43:44;;;;;;;8.35;2.67;;;;;;;;;;143717;677;46019;-53
2021/12/12 01:46:35;;;;;;;3.78;2.08;;;;;;;;;;143727;580;47012;-53
2021/12/12 01:49:11;;;;;;;4.15;1.30;;;;;;;;;;143725;576;47019;-53
2021/12/12 01:51:39;;;;;;;3.62;1.75;;;;;;;;;;143725;586;47010;-53
2021/12/12 01:54:10;;;;;;;3.55;1.25;;;;;;;;;;143724;569;46018;-54
2021/12/12 01:56:43;;;;;;;3.70;1.98;;;;;;;;;;143727;593;46022;-55
2021/12/12 01:59:12;;;;;;;4.37;2.78;;;;;;;;;;143724;585;47021;-53
2021/12/12 02:01:47;;;;;;;5.05;2.25;;;;;;;;;;143724;564;47010;-53
2021/12/12 02:04:19;;;;;;;5.28;2.28;;;;;;;;;;143721;579;46018;-54
2021/12/12 02:06:48;;;;;;;4.62;2.00;;;;;;;;;;143729;564;46023;-54
2021/12/12 02:09:15;;;;;;;6.95;2.20;;;;;;;;;;143724;573;47018;-53
2021/12/12 02:11:45;;;;;;;5.30;3.03;;;;;;;;;;143723;582;47011;-53
2021/12/12 02:14:17;;;;;;;7.82;2.53;;;;;;;;;;143723;584;46021;-55
2021/12/12 02:16:56;;;;;;;3.95;2.17;;;;;;;;;;143728;569;46020;-55
2021/12/12 02:19:40;;;;;;;5.50;2.67;;;;;;;;;;143719;585;47019;-54
2021/12/12 02:22:40;;;;;;;3.78;2.40;;;;;;;;;;143724;570;47010;-54
2021/12/12 02:36:23;;;;;;;3.65;1.67;;;;;;;;;;143726;575;47018;-54
2021/12/12 02:38:51;;;;;;;6.60;1.73;;;;;;;;;;143725;654;47012;-55
2021/12/12 02:41:21;;;;;;;5.62;2.25;;;;;;;;;;143725;575;47019;-53
2021/12/12 02:43:56;;;;;;;6.40;2.92;;;;;;;;;;143723;569;47010;-54
2021/12/12 02:46:28;;;;;;;7.25;2.78;;;;;;;;;;143723;564;46018;-54
2021/12/12 02:49:05;;;;;;;4.12;2.62;;;;;;;;;;143729;627;46022;-54
2021/12/12 02:51:35;;;;;;;6.12;2.22;;;;;;;;;;143722;663;47021;-53
2021/12/12 02:54:03;;;;;;;7.15;2.70;;;;;;;;;;143723;571;47010;-53
2021/12/12 02:56:34;;;;;;;4.95;1.87;;;;;;;;;;143723;585;46018;-55
2021/12/12 02:59:06;;;;;;;5.97;2.45;;;;;;;;;;143728;570;46023;-55
2021/12/12 03:01:41;;;;;;;4.35;1.92;;;;;;;;;;143725;623;47020;-54
2021/12/12 03:04:08;;;;;;;;;;;;;;;;;;143730;970;47010;-54
2021/12/12 03:06:37;;;;;;;4.20;2.20;;;;;;;;;;143732;630;46019;-55
2021/12/12 03:09:17;;;;;;;4.95;2.45;;;;;;;;;;143729;578;46036;-53
2021/12/12 03:11:45;;;;;;;5.80;2.60;;;;;;;;;;143724;622;47020;-54
2021/12/12 03:14:13;;;;;;;3.10;2.00;;;;;;;;;;143723;569;47012;-53
2021/12/12 03:16:40;;;;;;;8.50;2.87;;;;;;;;;;143723;564;46912;-55
2021/12/12 03:19:08;;;;;;;6.65;3.10;;;;;;;;;;143729;599;46022;-53
2021/12/12 03:21:42;;;;;;;3.35;2.10;;;;;;;;;;143723;592;47029;-54
2021/12/12 03:24:19;;;;;;;5.72;2.67;;;;;;;;;;143727;619;47022;-54
2021/12/12 03:26:51;;;;;;;5.60;2.72;;;;;;;;;;143724;613;46018;-54
2021/12/12 03:29:19;;;;;;;4.25;2.22;;;;;;;;;;143729;585;46023;-54
2021/12/12 03:31:50;;;;;;;4.00;2.17;;;;;;;;;;143726;626;47020;-54
2021/12/12 03:34:21;;;;;;;6.12;2.47;;;;;;;;;;143727;580;47013;-54
2021/12/12 03:36:51;;;;;;;3.78;2.10;;;;;;;;;;143722;593;47012;-55
2021/12/12 03:39:27;;;;;;;4.28;1.60;;;;;;;;;;143728;565;46022;-55
2021/12/12 03:41:57;;;;;;;3.03;2.15;;;;;;;;;;143725;564;47019;-55
2021/12/12 03:44:29;;;;;;;2.47;1.90;;;;;;;;;;143723;592;47012;-54
2021/12/12 03:47:07;;;;;;;4.57;2.20;;;;;;;;;;143724;648;46018;-54
2021/12/12 03:49:37;;;;;;;2.60;1.83;;;;;;;;;;143728;573;46023;-54
2021/12/12 03:52:06;;;;;;;3.60;1.90;;;;;;;;;;143726;575;47018;-54
2021/12/12 03:54:35;;;;;;;4.50;2.20;;;;;;;;;;143725;587;47012;-53
2021/12/12 03:57:03;;;;;;;3.03;1.42;;;;;;;;;;143724;567;46019;-54
2021/12/12 03:59:30;;;;;;;3.30;1.73;;;;;;;;;;143729;566;46022;-55
2021/12/12 04:01:58;;;;;;;12.93;2.25;;;;;;;;;;143725;639;47018;-54
2021/12/12 04:04:33;;;;;;;4.00;2.30;;;;;;;;;;143724;632;47012;-55
2021/12/12 04:07:03;;;;;;;2.62;1.77;;;;;;;;;;143724;564;46018;-55
2021/12/12 04:09:30;;;;;;;4.25;2.37;;;;;;;;;;143729;591;46022;-54
2021/12/12 04:12:03;;;;;;;5.22;2.37;;;;;;;;;;143714;589;47019;-54
2021/12/12 04:14:30;;;;;;;4.05;2.45;;;;;;;;;;143724;569;47012;-55
2021/12/12 04:17:01;;;;;;;2.17;1.65;;;;;;;;;;143724;624;46018;-54
2021/12/12 04:19:29;;;;;;;4.57;2.45;;;;;;;;;;143729;611;46023;-54
2021/12/12 04:21:57;;;;;;;3.75;2.15;;;;;;;;;;143726;609;47018;-54
2021/12/12 04:24:29;;;;;;;12.10;3.95;;;;;;;;;;143724;563;47012;-53
2021/12/12 04:26:58;;;;;;;2.75;1.83;;;;;;;;;;143723;569;46019;-55
2021/12/12 04:29:28;;;;;;;3.40;2.25;;;;;;;;;;143728;611;47010;-54
2021/12/12 04:31:59;;;;;;;6.40;2.17;;;;;;;;;;143726;570;47020;-54
2021/12/12 04:34:31;;;;;;;4.15;2.20;;;;;;;;;;143725;647;47012;-54
2021/12/12 04:37:02;;;;;;;4.25;1.95;;;;;;;;;;143720;672;46018;-54
2021/12/12 04:39:33;;;;;;;2.50;2.12;;;;;;;;;;143729;569;46022;-53
2021/12/12 04:42:05;;;;;;;4.10;2.30;;;;;;;;;;143727;584;47019;-53
2021/12/12 04:44:36;;;;;;;3.78;1.95;;;;;;;;;;143726;575;47012;-55
2021/12/12 04:51:02;;;;;;;4.87;2.40;;;;;;;;;;143727;687;47012;-55
2021/12/12 04:53:52;;;;;;;4.45;2.78;;;;;;;;;;143727;678;47022;-55
2021/12/12 04:56:54;;;;;;;5.47;3.15;;;;;;;;;;143727;615;47012;-55
2021/12/12 04:59:42;;;;;;;5.18;3.78;;;;;;;;;;143724;570;46020;-54
2021/12/12 05:02:49;;;;;;;3.53;2.45;;;;;;;;;;143730;571;46024;-54
2021/12/12 05:05:26;;;;;;;6.03;4.03;;;;;;;;;;143726;595;47023;-55
2021/12/12 05:08:17;;;;;;;7.90;3.55;;;;;;;;;;143725;579;47012;-54
2021/12/12 05:11:06;;;;;;;6.07;3.67;;;;;;;;;;143728;594;46018;-53
2021/12/12 05:13:48;;;;;;;4.80;3.62;;;;;;;;;;143731;582;46022;-53
2021/12/12 05:16:20;;;;;;;5.03;3.75;;;;;;;;;;143727;701;47018;-53
2021/12/12 05:18:53;;;;;;;3.85;3.45;;;;;;;;;;143726;586;47012;-55
2021/12/12 05:21:28;;;;;;;5.32;3.45;;;;;;;;;;143727;575;46913;-53
2021/12/12 05:24:01;;;;;;;8.55;4.10;;;;;;;;;;143727;591;46022;-55
2021/12/12 05:26:32;;;;;;;4.93;3.12;;;;;;;;;;143727;564;47019;-54
2021/12/12 05:29:03;;;;;;;5.12;4.03;;;;;;;;;;143726;644;47012;-54
2021/12/12 05:31:32;;;;;;;4.03;3.28;;;;;;;;;;143727;569;46018;-55
2021/12/12 05:34:00;;;;;;;5.45;3.72;;;;;;;;;;143729;591;46023;-54
2021/12/12 05:36:29;;;;;;;4.30;3.15;;;;;;;;;;143726;662;47020;-54
2021/12/12 05:38:58;;;;;;;3.28;2.92;;;;;;;;;;143727;618;47012;-53
2021/12/12 05:41:26;;;;;;;6.12;3.45;;;;;;;;;;143727;586;46019;-55
2021/12/12 05:43:56;;;;;;;6.55;3.80;;;;;;;;;;143730;583;46022;-55
2021/12/12 05:46:24;;;;;;;5.03;3.53;;;;;;;;;;143726;591;47025;-55
2021/12/12 05:48:53;;;;;;;6.57;3.28;;;;;;;;;;143725;598;47013;-53
2021/12/12 05:51:22;;;;;;;6.80;3.47;;;;;;;;;;143725;585;46018;-53
2021/12/12 05:53:55;;;;;;;4.62;2.90;;;;;;;;;;143730;573;46022;-55
2021/12/12 05:56:27;;;;;;;5.53;3.15;;;;;;;;;;143725;596;48018;-55
2021/12/12 05:58:56;;;;;;;5.78;3.15;;;;;;;;;;143726;627;47012;-53
2021/12/12 06:01:24;;;;;;;6.57;3.97;;;;;;;;;;143726;614;46018;-54
2021/12/12 06:03:52;;;;;;;8.57;4.50;;;;;;;;;;143730;696;46023;-55
2021/12/12 06:06:24;;;;;;;7.87;4.25;;;;;;;;;;143726;565;47018;-55
2021/12/12 06:08:51;;;;;;;15.23;4.32;;;;;;;;;;143726;695;47013;-55
2021/12/12 06:11:22;;;;;;;8.65;4.40;;;;;;;;;;143728;565;46019;-55
2021/12/12 06:13:50;;;;;;;4.90;3.22;;;;;;;;;;143729;574;47012;-54
2021/12/12 06:16:19;;;;;;;6.85;3.67;;;;;;;;;;143726;644;47020;-54
2021/12/12 06:19:20;;;;;;;6.32;3.67;;;;;;;;;;143727;570;47012;-55
2021/12/12 06:21:53;;;;;;;6.43;3.72;;;;;;;;;;143726;617;46018;-54
2021/12/12 06:24:23;;;;;;;9.38;4.35;;;;;;;;;;143730;610;46022;-55
2021/12/12 06:26:50;;;;;;;7.20;4.65;;;;;;;;;;143727;596;47018;-54
2021/12/12 06:29:19;;;;;;;7.78;3.75;;;;;;;;;;143724;581;47012;-54
2021/12/12 06:31:48;;;;;;;6.45;3.80;;;;;;;;;;143730;565;46018;-54
2021/12/12 06:34:15;;;;;;;6.03;3.58;;;;;;;;;;143724;583;46023;-55
2021/12/12 06:36:43;;;;;;;8.68;4.10;;;;;;;;;;143726;610;47020;-54
2021/12/12 06:39:12;;;;;;;6.60;4.07;;;;;;;;;;143727;593;47013;-54
2021/12/12 06:41:39;;;;;;;3.72;2.85;;;;;;;;;;143724;582;46019;-55
2021/12/12 06:44:08;;;;;;;6.12;3.83;;;;;;;;;;143729;649;47012;-54
2021/12/12 06:46:38;;;;;;;6.87;4.00;;;;;;;;;;143726;611;47018;-56
2021/12/12 06:49:06;;;;;;;5.68;3.75;;;;;;;;;;143727;571;47012;-55
2021/12/12 06:51:38;;;;;;;8.80;4.12;;;;;;;;;;143725;593;46018;-54
2021/12/12 06:54:06;;;;;;;5.20;3.40;;;;;;;;;;143728;624;46022;-55
2021/12/12 06:56:34;;;;;;;13.52;4.45;;;;;;;;;;143726;614;47021;-54
2021/12/12 06:59:03;;;;;;;6.35;3.67;;;;;;;;;;143726;635;47012;-54
2021/12/12 07:01:33;;;;;;;8.02;4.22;;;;;;;;;;143725;571;46018;-54
2021/12/12 07:04:01;;;;;;;6.35;3.42;;;;;;;;;;143731;587;46023;-54
2021/12/12 07:06:30;;;;;;;6.62;4.20;;;;;;;;;;143727;585;47018;-54
2021/12/12 07:09:03;;;;;;;7.75;4.53;;;;;;;;;;143725;569;47012;-55
2021/12/12 07:11:31;;;;;;;7.37;4.32;;;;;;;;;;143726;620;46019;-55
2021/12/12 07:13:59;;;;;;;8.93;4.53;;;;;;;;;;143731;679;46022;-54
2021/12/12 07:16:26;;;;;;;9.27;4.53;;;;;;;;;;143727;571;47020;-54
2021/12/12 07:18:55;;;;;;;8.07;4.40;;;;;;;;;;143730;576;47012;-55
2021/12/12 07:21:24;;;;;;;8.98;4.60;;;;;;;;;;143727;617;46018;-55
2021/12/12 07:23:51;;;;;;;8.45;4.12;;;;;;;;;;143728;583;46039;-53
2021/12/12 07:26:22;;;;;;;9.68;3.70;;;;;;;;;;143728;714;47018;-53
2021/12/12 07:28:50;;;;;;;8.30;3.75;;;;;;;;;;143726;608;47012;-54
2021/12/12 07:31:20;;;;;;;5.57;3.37;;;;;;;;;;143725;590;46018;-54
2021/12/12 07:33:51;;;;;;;4.78;3.10;;;;;;;;;;143730;577;46023;-54
2021/12/12 07:36:19;;;;;;;4.60;2.72;;;;;;;;;;143725;656;47020;-53
2021/12/12 07:38:51;;;;;;;7.32;3.53;;;;;;;;;;143726;621;47012;-54
2021/12/12 07:41:24;;;;;;;5.10;2.97;;;;;;;;;;143727;695;46019;-55
2021/12/12 07:43:52;;;;;;;6.15;3.05;;;;;;;;;;143730;569;46022;-55
2021/12/12 07:46:20;;;;;;;4.45;2.80;;;;;;;;;;143727;614;47018;-55
2021/12/12 07:48:49;;;;;;;8.27;2.83;;;;;;;;;;143728;612;46022;-54
2021/12/12 07:51:16;;;;;;;4.28;3.03;;;;;;;;;;143726;643;46018;-53
2021/12/12 07:53:44;;;;;;;5.25;3.12;;;;;;;;;;143731;580;46022;-53
2021/12/12 07:56:11;;;;;;;7.07;3.67;;;;;;;;;;143727;586;47021;-53
2021/12/12 07:58:38;;;;;;;5.15;2.90;;;;;;;;;;143728;615;46012;-53
2021/12/12 08:01:06;;;;;;;7.20;3.62;;;;;;;;;;143725;583;46018;-53
2021/12/12 08:03:35;;;;;;;8.82;3.70;;;;;;;;;;143728;587;46023;-55
2021/12/12 08:06:05;;;;;;;7.30;3.50;;;;;;;;;;143727;656;47018;-54
2021/12/12 08:08:33;;;;;;;6.62;2.70;;;;;;;;;;143726;566;47012;-55
2021/12/12 08:11:01;;;;;;;6.45;3.50;;;;;;;;;;143724;592;46019;-54
2021/12/12 08:13:30;;;;;;;10.77;4.05;;;;;;;;;;143729;623;47010;-53
2021/12/12 08:15:58;;;;;;;8.45;4.28;;;;;;;;;;143727;603;47018;-53
2021/12/12 08:18:26;;;;;;;20.65;8.30;;;;;;;;;;143727;823;47012;-54
2021/12/12 08:20:55;;;;;;;24.23;12.27;;;;;;;;;;143727;619;46018;-53
2021/12/12 08:23:23;;;;;;;14.38;7.28;;;;;;;;;;143731;582;46022;-53
2021/12/12 08:25:54;;;;;;;17.45;11.07;;;;;;;;;;143720;569;47018;-53
2021/12/12 08:28:22;;;;;;;15.20;9.43;;;;;;;;;;143727;713;47012;-53
2021/12/12 08:30:51;;;;;;;17.62;10.07;;;;;;;;;;143725;597;46018;-55
2021/12/12 08:33:18;;;;;;;12.63;7.80;;;;;;;;;;143731;760;46023;-54
2021/12/12 08:35:46;;;;;;;8.25;4.25;;;;;;;;;;143727;569;47020;-54
2021/12/12 08:38:14;;;;;;;8.80;5.45;;;;;;;;;;143726;605;47013;-54
2021/12/12 08:40:46;;;;;;;12.35;6.20;;;;;;;;;;143727;596;46019;-56
2021/12/12 08:43:14;;;;;;;10.07;4.72;;;;;;;;;;143730;569;46022;-57
2021/12/12 08:45:46;;;;;;;10.48;5.85;;;;;;;;;;143727;608;47019;-56
2021/12/12 08:48:16;;;;;;;9.18;4.72;;;;;;;;;;143726;573;47013;-57
2021/12/12 08:50:45;;;;;;;6.97;4.30;;;;;;;;;;143725;588;46912;-57
2021/12/12 08:53:12;;;;;;;10.57;3.62;;;;;;;;;;143731;587;46022;-57
2021/12/12 08:55:44;;;;;;;8.77;3.20;;;;;;;;;;143727;591;47018;-56
2021/12/12 08:58:16;;;;;;;7.78;3.62;;;;;;;;;;143726;609;47012;-56
2021/12/12 09:01:05;;;;;;;10.10;3.85;;;;;;;;;;143725;592;46018;-56
2021/12/12 09:03:54;;;;;;;5.62;3.35;;;;;;;;;;143730;575;46023;-56
2021/12/12 09:06:26;;;;;;;7.80;3.97;;;;;;;;;;143726;637;47020;-56
2021/12/12 09:09:03;;;;;;;8.48;3.70;;;;;;;;;;143726;593;47013;-56
2021/12/12 09:11:56;;;;;;;6.65;3.45;;;;;;;;;;143724;572;46019;-56
2021/12/12 09:14:38;;;;;;;5.95;2.70;;;;;;;;;;143729;563;46022;-56
2021/12/12 09:17:16;;;;;;;7.18;3.83;;;;;;;;;;143724;856;47020;-58
2021/12/12 09:20:11;;;;;;;6.50;4.62;;;;;;;;;;143726;573;47012;-55
2021/12/12 09:23:00;;;;;;;5.97;3.55;;;;;;;;;;143724;738;46019;-58
2021/12/12 09:25:42;;;;;;;7.82;4.35;;;;;;;;;;143729;657;46025;-57
2021/12/12 09:28:35;;;;;;;11.57;5.03;;;;;;;;;;143724;582;47020;-56
2021/12/12 09:31:09;;;;;;;5.95;2.90;;;;;;;;;;143724;589;47013;-57
2021/12/12 09:33:59;;;;;;;7.00;3.83;;;;;;;;;;143723;804;46018;-56
2021/12/12 09:36:39;;;;;;;6.75;3.67;;;;;;;;;;143728;612;46022;-58
2021/12/12 09:39:24;;;;;;;5.53;2.90;;;;;;;;;;143725;675;47019;-59
2021/12/12 09:42:39;;;;;;;6.47;2.95;;;;;;;;;;143722;579;47012;-56
2021/12/12 09:45:59;;;;;;;8.03;3.57;;;;;;;;;;143724;604;46020;-55
2021/12/12 09:52:43;;;;;;;11.18;5.95;;;;;;;;;;143726;727;47018;-56
2021/12/12 09:55:15;;;;;;;5.75;2.53;;;;;;;;;;143724;564;47033;-59
2021/12/12 09:58:03;;;;;;;5.82;3.58;;;;;;;;;;143725;587;46018;-58
2021/12/12 10:00:37;;;;;;;9.85;4.28;;;;;;;;;;143729;599;46022;-58
2021/12/12 10:03:10;;;;;;;;;;;;;;;;;;143729;983;47021;-57
2021/12/12 10:06:19;;;;;;;6.50;3.90;;;;;;;;;;143729;611;47012;-58
2021/12/12 10:09:08;;;;;;;6.75;3.62;;;;;;;;;;143723;578;46018;-56
2021/12/12 10:12:02;;;;;;;8.50;5.10;;;;;;;;;;143729;570;46022;-56
2021/12/12 10:14:59;;;;;;;4.87;2.60;;;;;;;;;;143727;577;47018;-57
2021/12/12 10:17:48;;;;;;;8.10;4.28;;;;;;;;;;143724;605;47013;-57
2021/12/12 10:20:32;;;;;;;9.05;4.57;;;;;;;;;;143724;602;46020;-58
2021/12/12 10:23:36;;;;;;;10.40;5.55;;;;;;;;;;143728;615;46022;-58
2021/12/12 10:26:15;;;;;;;12.45;4.72;;;;;;;;;;143724;637;47018;-59
2021/12/12 10:29:12;;;;;;;15.40;5.87;;;;;;;;;;143724;588;47012;-57
2021/12/12 10:32:06;;;;;;;14.57;6.18;;;;;;;;;;143724;583;45910;-58
2021/12/12 10:34:41;;;;;;;18.48;6.62;;;;;;;;;;143729;579;46022;-59
2021/12/12 10:37:15;;;;;;;13.57;6.90;;;;;;;;;;143724;606;47020;-56
2021/12/12 10:40:04;;;;;;;10.15;4.87;;;;;;;;;;143725;593;47013;-57
2021/12/12 10:42:37;;;;;;;11.27;5.05;;;;;;;;;;143717;584;47014;-59
2021/12/12 10:45:08;;;;;;;16.25;7.82;;;;;;;;;;143722;578;47013;-60
2021/12/12 10:48:17;;;;;;;11.68;6.22;;;;;;;;;;143725;639;47021;-59
2021/12/12 10:51:20;;;;;;;11.38;5.60;;;;;;;;;;143724;572;47012;-59
2021/12/12 10:54:02;;;;;;;12.05;5.32;;;;;;;;;;143724;609;46018;-60
2021/12/12 10:57:03;;;;;;;12.10;6.82;;;;;;;;;;143727;583;46022;-60
2021/12/12 11:00:27;;;;;;;12.93;6.53;;;;;;;;;;143725;589;47042;-60
2021/12/12 11:03:11;;;;;;;7.25;4.32;;;;;;;;;;143721;625;47012;-58
2021/12/12 11:05:55;;;;;;;8.55;3.95;;;;;;;;;;143723;652;46018;-59
2021/12/12 11:08:37;;;;;;;7.12;2.60;;;;;;;;;;143728;615;46022;-59
2021/12/12 11:11:39;;;;;;;2.85;2.12;;;;;;;;;;143722;587;47020;-59
2021/12/12 11:14:36;;;;;;;7.45;3.97;;;;;;;;;;143724;564;47012;-58
2021/12/12 11:17:30;;;;;;;3.25;1.90;;;;;;;;;;143721;581;46021;-59
2021/12/12 11:20:43;;;;;;;7.60;2.72;;;;;;;;;;143728;577;46022;-60
2021/12/12 11:23:32;;;;;;;6.05;3.62;;;;;;;;;;143726;612;47022;-59
2021/12/12 11:26:06;;;;;;;12.20;6.75;;;;;;;;;;143725;607;47012;-57
2021/12/12 11:28:46;;;;;;;8.10;4.00;;;;;;;;;;143723;600;46018;-58
2021/12/12 11:31:33;;;;;;;10.48;6.70;;;;;;;;;;143726;603;46023;-57
2021/12/12 11:34:02;;;;;;;2.62;1.87;;;;;;;;;;143724;579;47020;-58
2021/12/12 11:36:48;;;;;;;5.00;3.40;;;;;;;;;;143723;586;47012;-58
2021/12/12 11:39:22;;;;;;;6.97;4.47;;;;;;;;;;143723;620;46019;-59
2021/12/12 11:42:11;;;;;;;6.75;2.92;;;;;;;;;;143728;590;46022;-58
2021/12/12 11:45:20;;;;;;;3.67;1.90;;;;;;;;;;143725;630;47019;-57
2021/12/12 11:48:13;;;;;;;5.30;2.80;;;;;;;;;;143725;606;46918;-57
2021/12/12 11:51:08;;;;;;;6.32;4.60;;;;;;;;;;143725;568;46018;-56
2021/12/12 11:53:50;;;;;;;11.75;6.00;;;;;;;;;;143729;608;46023;-58
2021/12/12 11:56:26;;;;;;;12.95;6.97;;;;;;;;;;143724;603;47020;-58
2021/12/12 11:59:25;;;;;;;10.60;6.37;;;;;;;;;;143724;565;47013;-58
2021/12/12 12:02:21;;;;;;;6.97;4.35;;;;;;;;;;143724;598;46018;-58
2021/12/12 12:05:32;;;;;;;8.70;4.05;;;;;;;;;;143728;581;46024;-57
2021/12/12 12:08:34;;;;;;;12.70;5.53;;;;;;;;;;143723;578;47023;-56
2021/12/12 12:11:56;;;;;;;8.88;5.40;;;;;;;;;;143724;566;47012;-58
2021/12/12 12:14:56;;;;;;;16.02;11.38;;;;;;;;;;143724;636;46018;-56
2021/12/12 12:18:09;;;;;;;12.37;8.70;;;;;;;;;;143729;624;46023;-58
2021/12/12 12:21:14;;;;;;;17.10;11.00;;;;;;;;;;143726;637;47020;-57
2021/12/12 12:24:11;;;;;;;16.73;12.63;;;;;;;;;;143725;567;47012;-58
2021/12/12 12:27:13;;;;;;;21.37;15.13;;;;;;;;;;143723;646;46020;-56
2021/12/12 12:30:20;;;;;;;23.50;17.83;;;;;;;;;;143728;777;46024;-58
2021/12/12 12:33:33;;;;;;;26.35;15.57;;;;;;;;;;143725;594;47012;-57
2021/12/12 12:36:44;;;;;;;15.93;8.38;;;;;;;;;;143724;581;47012;-56
2021/12/12 12:39:48;;;;;;;11.82;7.05;;;;;;;;;;143717;580;46019;-57
2021/12/12 12:43:10;;;;;;;12.63;7.75;;;;;;;;;;143726;563;46022;-56
2021/12/12 12:46:28;;;;;;;8.55;4.57;;;;;;;;;;143725;565;47019;-57
2021/12/12 12:49:31;;;;;;;12.52;6.12;;;;;;;;;;143724;580;47012;-57
2021/12/12 12:52:52;;;;;;;6.78;2.92;;;;;;;;;;143723;580;46018;-57
2021/12/12 12:55:58;;;;;;;4.97;3.28;;;;;;;;;;143728;583;46022;-57
2021/12/12 12:59:16;;;;;;;12.32;6.45;;;;;;;;;;143724;566;47022;-58
2021/12/12 13:02:12;;;;;;;12.95;8.40;;;;;;;;;;143724;578;47012;-59
2021/12/12 13:05:31;;;;;;;10.77;6.62;;;;;;;;;;143724;585;46020;-58
2021/12/12 13:08:33;;;;;;;16.08;8.43;;;;;;;;;;143720;648;47013;-56
2021/12/12 13:11:05;;;;;;;7.90;5.20;;;;;;;;;;143718;620;47020;-57
2021/12/12 13:14:18;;;;;;;8.82;4.70;;;;;;;;;;143723;644;47013;-57
2021/12/12 13:16:55;;;;;;;10.95;6.70;;;;;;;;;;143724;580;46018;-57
2021/12/12 13:20:11;;;;;;;9.02;4.53;;;;;;;;;;143727;611;47012;-58
2021/12/12 13:23:14;;;;;;;9.85;5.68;;;;;;;;;;143725;575;47021;-56
2021/12/12 13:25:57;;;;;;;12.13;6.47;;;;;;;;;;143724;604;47012;-58
2021/12/12 13:28:47;;;;;;;8.50;5.68;;;;;;;;;;143723;615;46018;-58
2021/12/12 13:31:27;;;;;;;9.40;5.35;;;;;;;;;;143727;626;46027;-56
2021/12/12 13:34:18;;;;;;;10.00;6.00;;;;;;;;;;143724;616;47020;-57
2021/12/12 13:37:39;;;;;;;6.85;4.03;;;;;;;;;;143722;586;47013;-58
2021/12/12 13:40:24;;;;;;;9.27;5.40;;;;;;;;;;143716;564;46018;-56
2021/12/12 13:43:36;;;;;;;7.72;4.00;;;;;;;;;;143727;572;46022;-55
2021/12/12 13:46:34;;;;;;;6.75;4.65;;;;;;;;;;143725;580;47023;-56
2021/12/12 13:49:38;;;;;;;14.70;6.82;;;;;;;;;;143724;563;47012;-56
2021/12/12 13:52:28;;;;;;;9.50;4.65;;;;;;;;;;143723;570;46021;-58
2021/12/12 13:55:27;;;;;;;10.85;6.22;;;;;;;;;;143727;586;46022;-58
2021/12/12 13:58:20;;;;;;;13.80;7.75;;;;;;;;;;143725;563;47020;-56
2021/12/12 14:00:52;;;;;;;12.05;6.25;;;;;;;;;;143722;570;47012;-58
2021/12/12 14:03:46;;;;;;;15.07;8.93;;;;;;;;;;143724;571;46018;-57
2021/12/12 14:06:16;;;;;;;7.82;5.00;;;;;;;;;;143729;589;46022;-57
2021/12/12 14:08:49;;;;;;;6.80;3.72;;;;;;;;;;143721;613;47018;-58
2021/12/12 14:11:28;;;;;;;10.27;5.72;;;;;;;;;;143723;589;47012;-57
2021/12/12 14:14:05;;;;;;;9.05;5.18;;;;;;;;;;143724;591;46018;-58
2021/12/12 14:16:40;;;;;;;9.65;4.28;;;;;;;;;;143727;564;46023;-58
2021/12/12 14:19:15;;;;;;;11.80;5.18;;;;;;;;;;143724;603;47020;-57
2021/12/12 14:21:43;;;;;;;8.00;5.28;;;;;;;;;;143724;605;47012;-57
2021/12/12 14:24:11;;;;;;;14.40;6.43;;;;;;;;;;143723;578;46018;-58
2021/12/12 14:26:47;;;;;;;15.45;7.45;;;;;;;;;;143729;583;46022;-56
2021/12/12 14:29:22;;;;;;;9.40;4.10;;;;;;;;;;143725;616;47019;-56
2021/12/12 14:32:00;;;;;;;8.30;3.72;;;;;;;;;;143724;623;47012;-58
2021/12/12 14:34:36;;;;;;;9.35;4.65;;;;;;;;;;143724;582;46018;-58
2021/12/12 14:37:10;;;;;;;12.48;5.28;;;;;;;;;;143728;587;46023;-56
2021/12/12 14:39:38;;;;;;;12.30;4.80;;;;;;;;;;143724;606;47018;-58
2021/12/12 14:42:26;;;;;;;14.15;8.52;;;;;;;;;;143724;589;47012;-58
2021/12/12 14:44:57;;;;;;;6.07;4.37;;;;;;;;;;143723;569;46019;-56
2021/12/12 14:47:31;;;;;;;12.73;5.68;;;;;;;;;;143728;571;46022;-57
2021/12/12 14:50:20;;;;;;;8.23;5.12;;;;;;;;;;143727;591;47018;-58
2021/12/12 14:52:55;;;;;;;8.35;4.97;;;;;;;;;;143724;573;47013;-55
2021/12/12 14:55:54;;;;;;;14.80;7.90;;;;;;;;;;143723;579;46018;-58
2021/12/12 14:58:28;;;;;;;10.30;5.70;;;;;;;;;;143730;623;46022;-56
2021/12/12 15:01:02;;;;;;;13.40;7.62;;;;;;;;;;143718;583;47021;-56
2021/12/12 15:03:34;;;;;;;11.63;5.93;;;;;;;;;;143724;640;47012;-56
2021/12/12 15:06:29;;;;;;;9.20;5.90;;;;;;;;;;143724;582;46018;-58
2021/12/12 15:09:21;;;;;;;12.02;6.87;;;;;;;;;;143729;593;46023;-58
2021/12/12 15:12:04;;;;;;;12.82;6.93;;;;;;;;;;143725;573;47020;-58
2021/12/12 15:14:34;;;;;;;12.48;7.60;;;;;;;;;;143722;579;47013;-55
2021/12/12 15:17:09;;;;;;;9.98;7.05;;;;;;;;;;143723;565;46018;-56
2021/12/12 15:19:42;;;;;;;11.35;6.80;;;;;;;;;;143728;570;46022;-58
2021/12/12 15:22:12;;;;;;;16.83;8.00;;;;;;;;;;143725;580;47019;-56
2021/12/12 15:24:48;;;;;;;9.52;5.50;;;;;;;;;;143724;672;47012;-55
2021/12/12 15:27:24;;;;;;;13.75;7.93;;;;;;;;;;143723;574;46018;-56
2021/12/12 15:29:56;;;;;;;7.18;4.72;;;;;;;;;;143722;647;46031;-56
2021/12/12 15:32:27;;;;;;;10.38;4.35;;;;;;;;;;143725;587;47020;-58
2021/12/12 15:35:06;;;;;;;7.05;4.55;;;;;;;;;;143723;565;47013;-56
2021/12/12 15:37:36;;;;;;;10.10;4.75;;;;;;;;;;143723;594;46019;-56
2021/12/12 15:40:27;;;;;;;9.75;6.05;;;;;;;;;;143730;583;46022;-57
2021/12/12 15:42:58;;;;;;;9.25;5.18;;;;;;;;;;143726;583;47018;-57
2021/12/12 15:45:41;;;;;;;9.80;6.53;;;;;;;;;;143725;577;47012;-57
2021/12/12 15:48:18;;;;;;;11.57;7.55;;;;;;;;;;143725;570;46018;-57
2021/12/12 15:50:49;;;;;;;8.48;5.80;;;;;;;;;;143728;596;46022;-57
2021/12/12 15:53:25;;;;;;;8.25;5.50;;;;;;;;;;143724;746;47021;-57
2021/12/12 15:56:08;;;;;;;8.65;5.55;;;;;;;;;;143722;563;47012;-58
2021/12/12 15:58:45;;;;;;;10.50;5.72;;;;;;;;;;143725;575;46018;-58
2021/12/12 16:01:19;;;;;;;9.95;6.53;;;;;;;;;;143730;651;46022;-58
2021/12/12 16:03:53;;;;;;;9.73;6.20;;;;;;;;;;143724;569;47018;-56
2021/12/12 16:06:30;;;;;;;8.63;4.50;;;;;;;;;;143725;584;47013;-58
2021/12/12 16:09:02;;;;;;;12.18;6.97;;;;;;;;;;143724;667;46018;-57
2021/12/12 16:11:30;;;;;;;8.38;5.85;;;;;;;;;;143724;565;46022;-56